• Join FlightAware (Why Join?)
  • Login
  • US Flag 
08:13PM EDT


 

Airport Tracker/Info


-or-


 

Live Flight TrackerFlight Track Log ✈ DAL3741 ✈ 29-Apr-2013 ✈ KMSP - KCWA

Flight Track Log - Related Links

Times and Time Zones

All times are in EDT time to prevent confusion due to time zone crossing. See the DAL3741 flight status page for this flight to view local times or setup timezone preferences in your user account.

Time Position Orientation Groundspeed Altitude Reporting Facility
EDT Latitude Longitude Course Direction KTS MPH feet Rate Location/Type
04:42PM 44.8833 -93.1667 66° East 155 178 2,000  Level Minneapolis TRACON
04:43PM 44.8667 -93.1000 109° East 203 234 3,500 1,680 Climbing Minneapolis TRACON
04:44PM 44.9033 -93.0631 36° Northeast 227 261 5,300 2,040 Climbing Minneapolis Center
04:45PM 44.9764 -93.0239 21° North 277 319 7,700 2,580 Climbing Minneapolis Center
04:46PM 45.0586 -92.9511 32° Northeast 297 342 10,700 2,040 Climbing Minneapolis Center
04:47PM 45.0441 -92.5945 66° East  Level FlightAware Approximate
04:47PM 45.1050 -92.8297 62° Northeast 349 402 12,000  Level Minneapolis Center
04:48PM 45.1536 -92.6975 62° Northeast 377 434 13,600 1,440 Climbing Minneapolis Center
04:49PM 45.2042 -92.5614 62° Northeast 392 451 15,000 660 Climbing Minneapolis Center
04:50PM 45.2558 -92.4211 62° Northeast 401 461 15,000  Level Minneapolis Center
04:51PM 45.2906 -92.2786 71° East 390 449 15,000  Level Minneapolis Center
04:52PM 45.2594 -92.1050 104° East 381 438 15,000  Level Minneapolis Center
04:53PM 45.2311 -91.9567 105° East 387 445 15,000  Level Minneapolis Center
04:54PM 45.2033 -91.8108 105° East 384 442 15,000  Level Minneapolis Center
04:55PM 45.1744 -91.6650 106° East 385 443 15,000  Level Minneapolis Center
04:56PM 45.1483 -91.5181 104° East 386 444 15,000  Level Minneapolis Center
04:58PM 45.1147 -91.3456 105° East 389 448 15,000  Level Minneapolis Center
04:59PM 45.0881 -91.2025 105° East 389 448 15,000  Level Minneapolis Center
05:00PM 45.0569 -91.0461 106° East 392 451 15,000  Level Minneapolis Center
05:01PM 45.0256 -90.8906 106° East 395 455 15,000 -60 Level Minneapolis Center
05:02PM 44.9953 -90.7339 105° East 396 456 14,900 -1,020 Descending Minneapolis Center
05:03PM 44.9664 -90.5856 105° East 371 427 13,000 -2,220 Descending Minneapolis Center
05:04PM 44.9372 -90.4642 109° East 342 394 10,400 -2,040 Descending Minneapolis Center
05:05PM 44.8964 -90.3631 120° Southeast 283 326 8,800 -1,800 Descending Minneapolis Center
05:06PM 44.8561 -90.2644 120° Southeast 277 319 6,700 -1,920 Descending Minneapolis Center
05:07PM 44.8172 -90.1692 120° Southeast 269 310 4,900 -1,500 Descending Minneapolis Center
05:08PM 44.7789 -90.0792 121° Southeast 262 302 3,600 -960 Descending Minneapolis Center
05:09PM 44.7422 -89.9892 120° Southeast 254 292 3,000 -600 Descending Minneapolis Center